Time;durP1;ratioP1;P1;durP2;ratioP2;P2;SDS_P1;SDS_P2;PMS_P1;PMS_P2;Temp;Humidity;BMP_temperature;BMP_pressure;BME280_temperature;BME280_humidity;BME280_pressure;Samples;Min_cycle;Max_cycle;Signal;HPM_P1;HPM_P2
2021/11/10 00:02:06;;;;;;;;;24.75;20.50;;;;;21.98;39.78;102320.53;4972303;28;45442;-63
2021/11/10 00:04:32;;;;;;;;;22.50;18.00;;;;;21.98;39.47;102323.19;4972621;28;45649;-65
2021/11/10 00:06:57;;;;;;;;;25.00;19.75;;;;;22.00;39.22;102301.84;4967186;28;45578;-64
2021/11/10 00:09:22;;;;;;;;;20.50;19.25;;;;;21.98;39.08;102293.19;4961068;28;45415;-64
2021/11/10 00:11:48;;;;;;;;;19.25;17.25;;;;;22.00;38.86;102302.69;4971259;28;45381;-64
2021/11/10 00:14:13;;;;;;;;;24.25;20.00;;;;;22.01;38.72;102291.09;4968557;28;46209;-64
2021/11/10 00:16:39;;;;;;;;;26.50;19.00;;;;;22.02;38.59;102295.41;4967395;28;45505;-64
2021/11/10 00:19:05;;;;;;;;;11.50;11.50;;;;;22.02;38.89;102311.31;4967601;28;45413;-64
2021/11/10 00:21:31;;;;;;;;;18.25;18.25;;;;;21.98;38.46;102309.09;4967391;28;45450;-64
2021/11/10 00:23:57;;;;;;;;;21.50;19.75;;;;;22.03;38.39;102328.91;4971744;28;46033;-64
2021/11/10 00:26:23;;;;;;;;;17.75;16.50;;;;;22.04;38.46;102329.75;4969841;28;45955;-64
2021/11/10 00:28:50;;;;;;;;;19.25;18.75;;;;;21.99;38.58;102314.25;4967708;28;45378;-64
2021/11/10 00:31:16;;;;;;;;;20.75;19.00;;;;;21.99;38.52;102303.66;4967353;28;45446;-64
2021/11/10 00:33:41;;;;;;;;;17.25;16.00;;;;;22.01;38.78;102307.00;4965863;28;46472;-64
2021/11/10 00:36:09;;;;;;;;;21.00;19.50;;;;;22.04;38.39;102308.53;4969791;28;45279;-65
2021/11/10 00:38:35;;;;;;;;;18.25;16.50;;;;;22.02;38.66;102313.97;4970389;28;45283;-64
2021/11/10 00:41:00;;;;;;;;;21.75;20.75;;;;;22.03;38.27;102323.59;4968636;28;45313;-64
2021/11/10 00:43:25;;;;;;;;;17.00;16.00;;;;;22.01;38.29;102311.47;4971549;28;45556;-64
2021/11/10 00:45:51;;;;;;;;;22.75;19.00;;;;;22.00;38.14;102310.63;4972707;28;45375;-64
2021/11/10 00:48:16;;;;;;;;;17.75;17.50;;;;;22.04;38.65;102327.91;4970348;28;45980;-64
2021/11/10 00:50:43;;;;;;;;;16.75;15.50;;;;;22.03;38.39;102318.28;4971153;28;45255;-64
2021/11/10 00:53:08;;;;;;;;;21.50;18.00;;;;;22.02;38.51;102318.41;4973422;28;47465;-65
2021/11/10 00:55:34;;;;;;;;;20.75;18.25;;;;;22.03;37.98;102313.00;4971066;28;45261;-64
2021/11/10 00:58:00;;;;;;;;;21.75;19.75;;;;;22.05;37.92;102318.13;4971387;28;45606;-64
2021/11/10 01:00:26;;;;;;;;;19.75;18.50;;;;;22.00;38.62;102300.03;4971264;28;45426;-64
2021/11/10 01:02:52;;;;;;;;;20.50;16.25;;;;;22.05;38.37;102315.50;4971187;28;46463;-64
2021/11/10 01:05:18;;;;;;;;;18.00;17.25;;;;;22.04;38.54;102316.50;4972854;28;45684;-64
2021/11/10 01:07:44;;;;;;;;;18.50;18.00;;;;;22.03;38.15;102307.69;4971149;28;45345;-64
2021/11/10 01:10:11;;;;;;;;;21.00;18.25;;;;;22.04;37.94;102300.59;4971235;28;45593;-64
2021/11/10 01:12:37;;;;;;;;;19.75;18.00;;;;;22.04;38.11;102309.34;4969524;28;46457;-64
2021/11/10 01:15:04;;;;;;;;;19.00;15.75;;;;;22.03;38.37;102314.81;4971088;28;45413;-64
2021/11/10 01:17:30;;;;;;;;;18.25;16.00;;;;;22.04;38.08;102314.66;4972499;28;45303;-64
2021/11/10 01:19:55;;;;;;;;;18.75;16.50;;;;;22.05;38.03;102311.03;4971224;28;45351;-64
2021/11/10 01:22:21;;;;;;;;;18.75;18.75;;;;;21.99;38.24;102305.50;4970806;28;47348;-64
2021/11/10 01:24:46;;;;;;;;;20.75;17.75;;;;;22.05;38.15;102312.84;4970805;28;45370;-64
2021/11/10 01:27:12;;;;;;;;;19.25;18.25;;;;;22.04;38.07;102304.03;4971078;28;45326;-63
2021/11/10 01:29:37;;;;;;;;;19.50;18.00;;;;;22.03;38.28;102305.03;4974491;28;45335;-64
2021/11/10 01:32:03;;;;;;;;;18.00;17.75;;;;;22.06;37.96;102294.16;4975491;28;45449;-64
2021/11/10 01:34:29;;;;;;;;;21.75;18.25;;;;;21.89;37.82;102263.94;4973342;27;45475;-64
2021/11/10 01:36:55;;;;;;;;;18.75;16.25;;;;;22.04;37.86;102282.84;4973789;28;45412;-64
2021/11/10 01:39:22;;;;;;;;;19.00;16.75;;;;;22.04;37.97;102280.19;4973856;28;45414;-64
2021/11/10 01:41:51;;;;;;;;;22.00;19.25;;;;;22.06;37.87;102282.72;4973493;28;47154;-64
2021/11/10 01:44:26;;;;;;;;;22.50;20.50;;;;;22.06;37.85;102293.31;4974261;28;45337;-64
2021/11/10 01:46:54;;;;;;;;;19.50;17.00;;;;;22.04;37.84;102287.34;4973150;28;45477;-65
2021/11/10 01:49:20;;;;;;;;;19.25;17.00;;;;;22.06;38.30;102282.72;4973286;28;45462;-64
2021/11/10 01:51:51;;;;;;;;;19.75;19.00;;;;;22.07;38.05;102287.03;4971704;28;46526;-64
2021/11/10 01:54:18;;;;;;;;;17.50;17.50;;;;;22.07;37.90;102284.38;4973631;28;45585;-64
2021/11/10 01:56:43;;;;;;;;;16.75;15.00;;;;;22.03;37.89;102289.16;4973588;28;45441;-64
2021/11/10 01:59:10;;;;;;;;;18.75;17.00;;;;;22.04;37.69;102290.78;4974012;28;45710;-64
2021/11/10 02:01:43;;;;;;;;;20.50;16.25;;;;;22.06;38.11;102295.97;4973316;28;46513;-64
2021/11/10 02:04:10;;;;;;;;;19.50;19.50;;;;;22.00;38.01;102281.47;4972949;28;45336;-64
2021/11/10 02:06:35;;;;;;;;;19.50;14.25;;;;;22.01;38.07;102287.63;4971997;28;45459;-65
2021/11/10 02:09:02;;;;;;;;;17.50;17.00;;;;;22.00;38.16;102280.63;4973502;28;45485;-64
2021/11/10 02:11:27;;;;;;;;;20.50;16.75;;;;;22.05;38.08;102287.19;4974698;28;45519;-65
2021/11/10 02:13:53;;;;;;;;;16.75;14.00;;;;;22.05;37.57;102281.88;4973820;28;47089;-64
2021/11/10 02:16:18;;;;;;;;;19.25;16.50;;;;;22.02;38.18;102274.22;4973431;28;45367;-64
2021/11/10 02:18:43;;;;;;;;;19.50;19.00;;;;;22.02;38.22;102274.22;4973009;28;45495;-64
2021/11/10 02:21:10;;;;;;;;;21.00;16.00;;;;;22.00;37.78;102262.94;4972204;28;46152;-65
2021/11/10 02:23:36;;;;;;;;;18.25;17.25;;;;;22.04;38.15;102256.34;4972890;28;45611;-64
2021/11/10 02:26:03;;;;;;;;;19.75;19.00;;;;;22.04;37.59;102256.34;4973589;28;45343;-64
2021/11/10 02:28:28;;;;;;;;;18.00;16.75;;;;;22.03;38.04;102260.00;4972071;28;45540;-64
2021/11/10 02:30:54;;;;;;;;;20.00;19.50;;;;;22.02;38.28;102265.41;4969982;28;46224;-64
2021/11/10 02:33:27;;;;;;;;;16.50;16.25;;;;;22.00;37.76;102265.56;4971606;28;45408;-64
2021/11/10 02:35:58;;;;;;;;;15.00;15.00;;;;;22.03;38.08;102281.19;4956576;28;45462;-64
2021/11/10 02:38:24;;;;;;;;;15.75;15.25;;;;;22.02;37.63;102291.91;4970186;28;45363;-64
2021/11/10 02:40:55;;;;;;;;;17.00;16.00;;;;;22.00;37.81;102277.97;4970634;28;46340;-64
2021/11/10 02:43:21;;;;;;;;;14.75;13.50;;;;;22.01;37.63;102271.72;4971986;28;45272;-64
2021/11/10 02:45:48;;;;;;;;;14.50;14.00;;;;;22.03;38.02;102281.19;4970104;28;45359;-64
2021/11/10 02:48:14;;;;;;;;;20.00;16.50;;;;;21.98;37.85;102294.03;4972154;28;45501;-64
2021/11/10 02:50:39;;;;;;;;;18.00;16.25;;;;;22.03;37.44;102291.78;4971651;28;47153;-64
2021/11/10 02:53:05;;;;;;;;;19.00;15.75;;;;;22.03;37.52;102294.44;4973768;28;45475;-64
2021/11/10 02:55:31;;;;;;;;;19.75;17.00;;;;;22.03;37.82;102297.09;4971808;28;45549;-64
2021/11/10 02:57:57;;;;;;;;;18.25;14.00;;;;;22.00;37.31;102278.81;4971739;28;45478;-63
2021/11/10 03:00:24;;;;;;;;;18.75;18.00;;;;;22.04;37.66;102282.03;4971201;28;46051;-64
2021/11/10 03:02:54;;;;;;;;;17.25;16.25;;;;;22.03;37.47;102277.69;4971670;28;45307;-65
2021/11/10 03:05:21;;;;;;;;;18.50;16.75;;;;;22.02;37.86;102276.03;4973509;28;45417;-63
2021/11/10 03:07:46;;;;;;;;;17.50;14.50;;;;;21.95;37.91;102273.13;4971472;28;45592;-65
2021/11/10 03:10:12;;;;;;;;;17.00;15.50;;;;;21.96;37.70;102278.28;4969921;28;46227;-65
2021/11/10 03:12:37;;;;;;;;;19.25;15.50;;;;;22.02;37.75;102278.66;4971482;28;47721;-64
2021/11/10 03:15:04;;;;;;;;;16.75;15.25;;;;;21.99;37.92;102271.84;4971616;28;45497;-64
2021/11/10 03:17:29;;;;;;;;;18.75;15.25;;;;;21.98;37.17;102267.53;4972976;28;45493;-64
2021/11/10 03:19:55;;;;;;;;;17.50;16.50;;;;;22.01;37.26;102255.81;4925936;28;1332699;-64
2021/11/10 03:22:20;;;;;;;;;15.75;14.50;;;;;21.96;37.12;102237.72;4972444;28;45375;-65
2021/11/10 03:24:46;;;;;;;;;15.50;15.50;;;;;21.83;37.42;102212.31;4971186;28;45343;-64
2021/11/10 03:27:12;;;;;;;;;21.00;15.00;;;;;21.98;37.73;102240.19;4972555;28;45272;-64
2021/11/10 03:29:39;;;;;;;;;15.50;14.25;;;;;22.01;37.29;102246.06;4972424;28;46217;-64
2021/11/10 03:32:06;;;;;;;;;18.75;16.00;;;;;22.00;37.57;102248.84;4972333;28;45340;-64
2021/11/10 03:34:32;;;;;;;;;16.00;14.00;;;;;22.00;37.63;102260.28;4972274;28;45408;-64
2021/11/10 03:36:58;;;;;;;;;18.00;15.25;;;;;22.01;37.90;102263.78;4972406;28;45469;-64
2021/11/10 03:39:24;;;;;;;;;14.00;14.00;;;;;21.99;37.77;102255.94;4972297;28;46107;-64
2021/11/10 03:41:49;;;;;;;;;17.00;15.75;;;;;21.98;37.69;102246.34;4972338;28;45376;-64
2021/11/10 03:44:15;;;;;;;;;20.00;17.25;;;;;21.97;37.35;102239.34;4974155;28;45272;-64
2021/11/10 03:46:42;;;;;;;;;16.50;16.50;;;;;21.99;37.31;102239.22;4972386;28;45590;-64
2021/11/10 03:49:08;;;;;;;;;17.25;16.00;;;;;22.00;37.64;102236.41;4969649;28;45688;-64
2021/11/10 03:51:34;;;;;;;;;21.00;15.75;;;;;22.00;37.58;102235.59;4971936;28;45383;-64
2021/11/10 03:53:59;;;;;;;;;15.75;15.50;;;;;21.98;37.74;102233.09;4972326;28;45439;-64
2021/11/10 03:56:25;;;;;;;;;19.25;16.00;;;;;22.00;37.12;102219.69;4974453;28;45304;-65
2021/11/10 03:58:50;;;;;;;;;12.50;12.50;;;;;21.98;37.33;102200.44;4972209;28;46147;-64
2021/11/10 04:01:16;;;;;;;;;16.50;16.50;;;;;21.99;37.64;102208.25;4971973;28;45544;-64
2021/11/10 04:03:42;;;;;;;;;14.50;14.00;;;;;21.95;37.28;102194.47;4970763;28;45323;-64
2021/11/10 04:06:08;;;;;;;;;16.50;15.00;;;;;21.99;37.48;102210.88;4972087;28;45532;-64
2021/11/10 04:08:34;;;;;;;;;14.50;11.75;;;;;21.96;37.52;102216.50;4972796;28;45655;-64
2021/11/10 04:11:00;;;;;;;;;18.50;18.00;;;;;21.94;37.35;102210.50;4973266;28;45438;-64
2021/11/10 04:13:28;;;;;;;;;16.25;15.75;;;;;21.99;37.77;102208.25;4971653;28;45319;-64
2021/11/10 04:15:54;;;;;;;;;18.50;14.50;;;;;21.99;37.39;102186.22;4971880;28;45441;-64
2021/11/10 04:18:19;;;;;;;;;14.25;13.00;;;;;21.92;37.57;102176.22;4971824;28;47379;-64
2021/11/10 04:20:44;;;;;;;;;18.50;16.75;;;;;21.90;37.05;102175.53;4971518;28;45343;-64
2021/11/10 04:23:10;;;;;;;;;14.75;13.75;;;;;21.98;37.31;102203.09;4974085;28;45307;-65
2021/11/10 04:25:35;;;;;;;;;17.00;14.25;;;;;21.94;37.25;102199.91;4971714;28;45364;-64
2021/11/10 04:28:01;;;;;;;;;17.75;16.00;;;;;21.98;37.04;102203.09;4969887;28;46082;-64
2021/11/10 04:30:26;;;;;;;;;13.50;13.25;;;;;21.96;37.21;102184.72;4971753;28;45466;-64
2021/11/10 04:32:51;;;;;;;;;16.25;15.75;;;;;21.95;37.33;102175.91;4971890;28;45402;-64
2021/11/10 04:35:17;;;;;;;;;15.75;13.25;;;;;21.94;37.35;102189.28;4973764;28;45668;-64
2021/11/10 04:37:44;;;;;;;;;17.75;14.25;;;;;21.97;37.34;102196.97;4971360;28;46412;-64
2021/11/10 04:40:12;;;;;;;;;15.50;14.25;;;;;21.97;36.98;102207.56;4971496;28;45304;-64
2021/11/10 04:42:38;;;;;;;;;16.75;14.50;;;;;21.96;37.04;102229.75;4969873;28;45430;-64
2021/11/10 04:45:08;;;;;;;;;15.75;14.50;;;;;21.93;37.65;102236.19;4971540;28;45510;-64
2021/11/10 04:47:34;;;;;;;;;18.00;16.25;;;;;21.97;37.37;102244.66;4972390;28;45618;-64
2021/11/10 04:50:00;;;;;;;;;15.50;15.00;;;;;21.97;37.36;102257.91;4972428;28;45485;-64
2021/11/10 04:52:26;;;;;;;;;15.75;14.75;;;;;21.95;37.52;102258.06;4971438;28;45453;-64
2021/11/10 04:54:53;;;;;;;;;16.50;15.50;;;;;21.94;37.28;102251.09;4971358;28;45511;-64
2021/11/10 04:57:19;;;;;;;;;18.75;16.00;;;;;21.99;37.13;102252.47;4971086;28;46344;-64
2021/11/10 04:59:44;;;;;;;;;17.50;13.50;;;;;21.98;37.28;102258.75;4968703;28;45288;-64
2021/11/10 05:04:37;;;;;;;;;16.25;15.00;;;;;21.95;37.26;102258.06;4967086;28;45368;-64
2021/11/10 05:07:03;;;;;;;;;15.75;13.25;;;;;21.96;36.88;102261.56;4965474;28;45512;-64
2021/11/10 05:09:29;;;;;;;;;15.00;12.00;;;;;21.90;36.98;102240.94;4966979;28;45508;-64
2021/11/10 05:11:55;;;;;;;;;17.00;16.50;;;;;21.95;36.94;102242.16;4971321;28;45306;-64
2021/11/10 05:14:20;;;;;;;;;12.50;12.25;;;;;21.90;37.33;102239.13;4969222;28;45454;-64
2021/11/10 05:16:47;;;;;;;;;12.75;12.75;;;;;21.91;37.20;102254.03;4966857;28;46078;-65
2021/11/10 05:19:12;;;;;;;;;16.25;16.25;;;;;21.94;37.05;102266.16;5052891;27;45561;-64
2021/11/10 05:21:38;;;;;;;;;14.25;14.25;;;;;21.95;37.05;102273.97;4965500;28;45356;-64
2021/11/10 05:24:03;;;;;;;;;15.25;14.25;;;;;21.91;36.76;102261.16;4970401;28;45410;-64
2021/11/10 05:26:30;;;;;;;;;15.25;12.50;;;;;21.95;37.10;102267.81;4968846;28;45529;-63
2021/11/10 05:28:56;;;;;;;;;13.25;13.25;;;;;21.91;36.70;102263.81;4967340;28;45595;-64
2021/11/10 05:31:21;;;;;;;;;12.25;7.00;;;;;21.93;36.61;102275.09;4966686;28;45567;-64
2021/11/10 05:33:48;;;;;;;;;18.75;16.50;;;;;21.89;36.57;102290.44;4966686;28;45506;-64
2021/11/10 05:36:13;;;;;;;;;15.25;15.00;;;;;21.88;37.10;102290.59;4968818;28;45556;-64
2021/11/10 05:38:39;;;;;;;;;18.75;15.50;;;;;21.92;36.52;102294.59;4969111;28;45532;-63
2021/11/10 05:41:04;;;;;;;;;14.75;12.25;;;;;21.88;36.95;102285.28;4972318;28;45394;-63
2021/11/10 05:43:30;;;;;;;;;13.00;12.00;;;;;21.88;36.96;102287.94;4970691;28;45415;-64
2021/11/10 05:45:56;;;;;;;;;17.50;14.75;;;;;21.91;37.16;102304.38;4968849;28;46367;-64
2021/11/10 05:48:21;;;;;;;;;12.50;12.00;;;;;21.89;36.90;102314.28;4969186;28;45308;-64
2021/11/10 05:50:46;;;;;;;;;19.00;14.00;;;;;21.92;37.00;102326.41;4970753;28;45621;-64
2021/11/10 05:53:13;;;;;;;;;16.25;14.50;;;;;21.93;36.67;102328.94;4972753;28;45408;-64
2021/11/10 05:55:40;;;;;;;;;17.50;15.25;;;;;21.91;37.14;102327.41;4969946;28;45446;-64
2021/11/10 05:58:06;;;;;;;;;14.25;13.00;;;;;21.92;36.62;102326.41;4970391;28;45242;-64
2021/11/10 06:00:31;;;;;;;;;17.00;13.00;;;;;21.90;36.92;102315.97;4969064;28;45521;-64
2021/11/10 06:02:57;;;;;;;;;18.50;15.25;;;;;21.90;36.97;102312.47;4970577;28;45422;-64
2021/11/10 06:05:23;;;;;;;;;16.75;12.75;;;;;21.88;36.64;102302.03;4972326;28;45355;-63
2021/11/10 06:07:49;;;;;;;;;14.75;14.00;;;;;21.85;37.11;102307.56;4969117;28;45299;-64
2021/11/10 06:10:17;;;;;;;;;17.00;13.25;;;;;21.89;36.67;102318.75;4969930;28;45391;-64
2021/11/10 06:12:44;;;;;;;;;16.00;16.00;;;;;21.91;36.77;102330.06;4971008;28;45441;-64
2021/11/10 06:15:10;;;;;;;;;15.75;13.50;;;;;21.91;36.97;102328.22;4973248;28;47631;-64
2021/11/10 06:17:36;;;;;;;;;17.00;15.00;;;;;21.92;36.76;102327.25;4973963;28;45241;-64
2021/11/10 06:20:02;;;;;;;;;14.50;13.25;;;;;21.90;37.00;102323.91;4974565;28;45334;-64
2021/11/10 06:22:29;;;;;;;;;16.75;14.00;;;;;21.91;37.23;102317.63;4973104;28;47224;-64
2021/11/10 06:24:55;;;;;;;;;15.00;14.00;;;;;21.76;36.96;102290.72;4971144;28;45355;-64
2021/11/10 06:27:20;;;;;;;;;16.00;13.50;;;;;21.89;36.83;102306.31;4973117;28;45400;-64
2021/11/10 06:29:46;;;;;;;;;15.75;14.25;;;;;21.91;37.13;102312.31;4973282;28;45553;-64
2021/11/10 06:32:11;;;;;;;;;12.00;12.00;;;;;21.84;37.03;102301.44;4975422;28;45355;-65
2021/11/10 06:34:36;;;;;;;;;15.00;12.50;;;;;21.91;36.69;102312.31;4972870;28;46715;-64
2021/11/10 06:37:02;;;;;;;;;14.75;13.00;;;;;21.90;36.77;102302.72;4972953;28;45363;-64
2021/11/10 06:39:28;;;;;;;;;17.25;12.75;;;;;21.90;36.94;102305.38;4971493;28;45537;-64
2021/11/10 06:41:53;;;;;;;;;12.75;11.50;;;;;21.86;37.04;102295.97;4957730;28;45452;-64
2021/11/10 06:44:19;;;;;;;;;11.25;11.25;;;;;21.86;36.91;102293.34;4974933;28;45994;-64
2021/11/10 06:46:44;;;;;;;;;15.50;14.75;;;;;21.84;36.86;102272.28;4972900;28;45287;-64
2021/11/10 06:49:10;;;;;;;;;15.25;14.00;;;;;21.88;37.14;102264.09;4972886;28;45335;-64
2021/11/10 06:51:36;;;;;;;;;19.50;16.50;;;;;21.87;36.95;102257.06;4973011;28;45591;-65
2021/11/10 06:54:01;;;;;;;;;15.50;11.75;;;;;21.83;36.94;102249.41;4972533;28;45508;-64
2021/11/10 06:56:27;;;;;;;;;17.25;14.00;;;;;21.87;37.01;102265.03;4974403;28;45466;-64
2021/11/10 06:58:52;;;;;;;;;14.00;12.75;;;;;21.84;36.95;102256.41;4973482;28;45370;-64
2021/11/10 07:01:18;;;;;;;;;15.50;12.25;;;;;21.88;37.06;102272.03;4981534;28;45340;-64
2021/11/10 07:03:44;;;;;;;;;11.50;11.50;;;;;21.81;36.87;102251.38;4971299;28;45363;-64
2021/11/10 07:06:09;;;;;;;;;13.75;11.50;;;;;21.88;36.64;102266.75;4972478;28;45403;-64
2021/11/10 07:08:35;;;;;;;;;15.00;14.25;;;;;21.87;36.65;102254.44;4973264;28;45359;-64
2021/11/10 07:11:00;;;;;;;;;15.75;13.00;;;;;21.87;36.87;102252.66;4974179;28;45506;-66
2021/11/10 07:13:26;;;;;;;;;13.75;13.25;;;;;21.84;36.95;102253.75;4972361;28;45441;-64
2021/11/10 07:15:51;;;;;;;;;14.75;14.00;;;;;21.69;36.50;102221.59;4972574;28;45418;-64
2021/11/10 07:18:17;;;;;;;;;17.00;16.00;;;;;21.87;36.46;102233.22;4971478;28;45339;-64
2021/11/10 07:20:43;;;;;;;;;18.00;15.00;;;;;21.87;36.76;102231.44;4972518;28;45542;-63
2021/11/10 07:23:08;;;;;;;;;14.00;12.50;;;;;21.86;36.41;102232.38;4971821;28;45953;-63
2021/11/10 07:25:34;;;;;;;;;11.50;11.50;;;;;21.90;36.54;102252.38;4962442;28;45328;-62
2021/11/10 07:28:00;;;;;;;;;13.75;12.00;;;;;21.95;36.41;102233.38;4964410;28;45510;-62
2021/11/10 07:30:25;;;;;;;;;13.75;12.50;;;;;21.98;36.94;102248.16;4972326;28;45354;-62
2021/11/10 07:32:51;;;;;;;;;14.25;13.50;;;;;22.02;37.01;102249.50;4972154;28;46483;-62
2021/11/10 07:35:17;;;;;;;;;13.25;11.25;;;;;22.11;36.95;102253.97;4974366;28;45337;-63
2021/11/10 07:37:45;;;;;;;;;13.00;11.25;;;;;22.17;36.86;102257.84;4971555;28;45564;-62
2021/11/10 07:40:13;;;;;;;;;12.00;10.75;;;;;22.24;36.67;102269.53;4971622;28;45458;-63
2021/11/10 07:42:38;;;;;;;;;13.00;12.25;;;;;22.33;36.74;102288.19;4971688;28;45485;-65
2021/11/10 07:45:10;;;;;;;;;16.50;13.75;;;;;22.43;36.38;102296.09;4971559;28;45465;-65
2021/11/10 07:47:46;;;;;;;;;14.00;13.00;;;;;22.51;36.48;102306.78;4972470;28;45714;-65
2021/11/10 07:50:16;;;;;;;;;12.75;12.75;;;;;22.61;36.24;102318.16;4973132;28;45528;-65
2021/11/10 07:52:42;;;;;;;;;10.75;9.50;;;;;22.70;36.50;102323.59;4971207;28;45620;-65
2021/11/10 07:55:08;;;;;;;;;14.00;13.00;;;;;22.78;36.06;102330.81;4971111;28;45502;-64
2021/11/10 07:57:35;;;;;;;;;10.25;10.25;;;;;22.80;35.88;102326.19;4967342;28;45843;-63
2021/11/10 08:00:05;;;;;;;;;13.00;12.75;;;;;22.82;35.90;102340.16;4971302;28;45494;-64
2021/11/10 08:02:31;;;;;;;;;10.50;8.75;;;;;22.80;36.36;102331.50;4972852;28;45995;-64
2021/11/10 08:04:56;;;;;;;;;12.25;10.50;;;;;22.79;35.96;102343.13;4972397;28;45670;-64
2021/11/10 08:07:21;;;;;;;;;11.00;10.75;;;;;22.74;36.17;102347.03;4971868;28;45320;-64
2021/11/10 08:09:46;;;;;;;;;11.25;11.00;;;;;22.71;36.38;102355.31;4967121;28;46608;-63
2021/11/10 08:12:12;;;;;;;;;15.50;12.00;;;;;22.63;36.20;102358.69;4958630;28;49023;-64
2021/11/10 08:14:37;;;;;;;;;13.00;11.00;;;;;22.41;35.81;102343.97;4972285;28;45367;-63
2021/11/10 08:17:03;;;;;;;;;13.00;11.25;;;;;22.54;35.81;102366.66;4969501;28;45406;-65
2021/11/10 08:19:28;;;;;;;;;8.25;7.50;;;;;22.31;36.50;102335.22;4968689;28;45471;-66
2021/11/10 08:21:53;;;;;;;;;14.75;11.75;;;;;22.43;36.11;102357.91;4971236;28;47922;-64
2021/11/10 08:24:19;;;;;;;;;12.50;12.50;;;;;22.42;36.39;102344.81;4970830;28;45505;-64
2021/11/10 08:26:44;;;;;;;;;11.75;11.75;;;;;22.39;36.13;102335.31;4971653;28;45540;-64
2021/11/10 08:29:09;;;;;;;;;14.50;13.00;;;;;22.31;36.19;102328.09;4972672;28;45474;-64
2021/11/10 08:31:35;;;;;;;;;14.50;12.50;;;;;22.36;36.57;102346.22;4981871;27;45359;-63
2021/11/10 08:34:00;;;;;;;;;13.75;12.00;;;;;22.33;36.68;102354.47;4971059;28;45323;-64
2021/11/10 08:36:26;;;;;;;;;12.00;11.50;;;;;22.32;36.13;102363.41;4969894;28;45348;-64
2021/11/10 08:38:53;;;;;;;;;15.25;13.00;;;;;22.29;36.52;102372.47;4971587;28;45309;-64
2021/11/10 08:41:21;;;;;;;;;11.50;10.75;;;;;22.28;36.65;102378.75;4973374;28;46259;-64
2021/11/10 08:43:47;;;;;;;;;14.50;13.00;;;;;22.26;36.56;102372.78;4971098;28;45338;-64
2021/11/10 08:46:13;;;;;;;;;13.75;12.00;;;;;22.25;36.67;102371.94;4971334;28;45491;-64
2021/11/10 08:48:38;;;;;;;;;12.75;11.50;;;;;22.18;36.14;102369.03;4970596;28;45382;-64
2021/11/10 08:51:04;;;;;;;;;12.50;10.25;;;;;22.18;36.31;102358.44;4971452;28;47244;-64
2021/11/10 08:53:29;;;;;;;;;12.75;11.75;;;;;22.23;36.38;102365.09;4972631;28;45331;-64
2021/11/10 08:55:57;;;;;;;;;13.00;12.00;;;;;22.18;36.73;102361.06;4971885;28;45626;-64
2021/11/10 08:58:24;;;;;;;;;12.75;11.75;;;;;22.22;36.34;102379.34;4970932;28;45328;-64
2021/11/10 09:00:52;;;;;;;;;16.00;13.00;;;;;22.18;36.67;102369.03;4969517;28;45450;-64
2021/11/10 09:03:20;;;;;;;;;14.25;13.50;;;;;22.12;36.42;102355.53;4970517;28;45350;-63
2021/11/10 09:05:45;;;;;;;;;14.50;13.50;;;;;22.14;36.83;102350.91;4971422;28;45552;-64
2021/11/10 09:08:11;;;;;;;;;11.00;11.00;;;;;22.17;36.69;102350.63;4973176;28;45540;-64
2021/11/10 09:10:37;;;;;;;;;16.25;13.50;;;;;22.10;36.57;102345.06;4971009;28;46672;-63
2021/11/10 09:13:04;;;;;;;;;11.25;10.50;;;;;22.11;36.43;102344.09;4970904;28;45525;-64
2021/11/10 09:15:31;;;;;;;;;16.75;12.75;;;;;22.14;36.30;102359.72;4969414;28;45388;-64
2021/11/10 09:17:58;;;;;;;;;13.75;11.00;;;;;22.13;36.56;102360.66;4970768;28;45755;-64
2021/11/10 09:20:25;;;;;;;;;15.00;12.50;;;;;22.10;36.88;102366.25;4972691;28;47277;-64
2021/11/10 09:22:53;;;;;;;;;12.00;11.25;;;;;22.06;36.35;102357.78;4970185;28;47969;-64
2021/11/10 09:25:19;;;;;;;;;11.75;10.00;;;;;22.14;36.85;102364.16;4970639;28;45418;-64
2021/11/10 09:27:45;;;;;;;;;15.00;12.50;;;;;22.13;36.66;102368.63;4970812;28;45541;-64
2021/11/10 09:30:16;;;;;;;;;14.75;13.00;;;;;22.13;36.46;102370.44;4970768;28;45503;-64
2021/11/10 09:32:43;;;;;;;;;12.00;12.00;;;;;21.95;36.66;102348.16;4970368;28;45398;-64
2021/11/10 09:35:11;;;;;;;;;15.75;12.75;;;;;22.07;36.57;102364.72;4972855;28;45308;-63
2021/11/10 09:37:37;;;;;;;;;13.25;11.00;;;;;22.04;36.51;102356.25;4970599;28;45444;-64
2021/11/10 09:40:06;;;;;;;;;13.00;11.50;;;;;22.10;36.56;102362.75;4969021;28;46472;-64
2021/11/10 09:42:33;;;;;;;;;14.25;11.25;;;;;22.09;36.38;102359.31;4970275;28;45600;-64
2021/11/10 09:44:59;;;;;;;;;12.00;12.00;;;;;22.03;36.42;102358.06;4970702;28;45350;-64
2021/11/10 09:47:25;;;;;;;;;13.00;9.75;;;;;22.06;36.50;102356.94;4972723;28;45378;-64
2021/11/10 09:49:50;;;;;;;;;12.75;12.75;;;;;22.06;36.95;102349.81;4973183;28;46691;-64
2021/11/10 09:52:16;;;;;;;;;10.00;9.25;;;;;22.10;36.89;102347.69;4973699;28;45724;-64
2021/11/10 09:54:42;;;;;;;;;13.00;11.75;;;;;22.09;36.58;102337.25;4973673;28;45570;-64
2021/11/10 09:57:08;;;;;;;;;14.50;12.75;;;;;22.09;36.46;102339.91;4973441;28;45467;-64
2021/11/10 09:59:36;;;;;;;;;15.00;12.25;;;;;22.10;36.89;102346.84;4974735;28;46607;-64
2021/11/10 10:02:02;;;;;;;;;13.00;12.00;;;;;22.09;36.83;102355.81;4974383;28;45518;-64
2021/11/10 10:04:28;;;;;;;;;11.50;10.75;;;;;22.04;36.31;102343.00;4973139;28;45494;-64
2021/11/10 10:06:55;;;;;;;;;14.25;11.00;;;;;22.09;36.79;102345.19;4973299;28;45353;-65
2021/11/10 10:09:20;;;;;;;;;12.50;12.00;;;;;22.07;36.90;102347.97;4973127;28;45331;-64
2021/11/10 10:11:46;;;;;;;;;11.75;11.00;;;;;22.04;36.84;102356.25;4972250;28;45535;-63
2021/11/10 10:14:11;;;;;;;;;18.25;13.75;;;;;21.91;36.53;102335.34;4975652;28;45329;-64
2021/11/10 10:16:37;;;;;;;;;10.50;10.50;;;;;22.09;36.50;102372.56;4972740;28;45493;-63
2021/11/10 10:19:12;;;;;;;;;11.75;11.25;;;;;22.03;36.72;102366.00;4974271;28;45506;-64
2021/11/10 10:21:40;;;;;;;;;10.50;10.50;;;;;22.08;36.36;102370.88;4973119;28;45512;-65
2021/11/10 10:24:08;;;;;;;;;16.25;14.25;;;;;22.10;36.67;102354.81;4973263;28;45409;-64
2021/11/10 10:26:34;;;;;;;;;13.50;13.50;;;;;22.09;36.29;102342.56;4974037;28;45499;-64
2021/11/10 10:29:07;;;;;;;;;12.25;12.25;;;;;22.09;36.82;102345.19;4973841;28;46475;-64
2021/11/10 10:31:35;;;;;;;;;10.75;10.75;;;;;22.05;36.37;102344.66;4972671;28;45279;-64
2021/11/10 10:34:06;;;;;;;;;11.50;11.50;;;;;22.03;36.46;102338.66;4973077;28;48663;-64
2021/11/10 10:36:34;;;;;;;;;14.25;12.50;;;;;21.91;36.52;102328.22;4972902;28;45437;-64
2021/11/10 10:39:10;;;;;;;;;12.75;11.00;;;;;22.07;36.45;102346.16;4972927;28;45385;-64
2021/11/10 10:41:40;;;;;;;;;13.50;12.25;;;;;22.07;36.69;102335.56;4973812;28;45359;-63
2021/11/10 10:44:13;;;;;;;;;13.00;11.50;;;;;22.07;36.75;102319.66;4974369;28;45406;-66
2021/11/10 10:46:44;;;;;;;;;13.75;11.75;;;;;22.09;36.59;102322.19;4972652;28;45545;-64
2021/11/10 10:49:33;;;;;;;;;12.00;10.75;;;;;22.10;36.35;102326.50;4972566;28;45531;-64
2021/11/10 10:52:15;;;;;;;;;11.25;10.25;;;;;22.11;36.38;102314.09;4972341;28;45555;-64
2021/11/10 10:54:42;;;;;;;;;11.00;11.00;;;;;22.09;36.31;102302.78;4972593;28;45531;-64
2021/11/10 10:57:10;;;;;;;;;11.25;10.25;;;;;22.05;36.46;102296.94;4971122;28;45470;-64
2021/11/10 10:59:35;;;;;;;;;15.25;12.00;;;;;22.06;36.53;102298.63;4972947;28;46360;-64
2021/11/10 11:02:03;;;;;;;;;14.75;12.50;;;;;22.07;36.82;102302.91;4973815;28;45523;-64
2021/11/10 11:04:33;;;;;;;;;15.00;13.00;;;;;22.09;36.50;102318.69;4972406;28;45421;-64
2021/11/10 11:07:08;;;;;;;;;11.50;9.00;;;;;22.07;37.15;102317.00;4972467;28;45418;-63
2021/11/10 11:09:41;;;;;;;;;13.00;11.50;;;;;22.09;36.83;102324.00;4972293;28;46542;-64